Time;durP1;ratioP1;P1;durP2;ratioP2;P2;SDS_P1;SDS_P2;PMS_P1;PMS_P2;Temp;Humidity;BMP_temperature;BMP_pressure;BME280_temperature;BME280_humidity;BME280_pressure;Samples;Min_cycle;Max_cycle;Signal;HPM_P1;HPM_P2
2023/06/27 00:01:45;;;;;;;8.65;2.53;;;;;;;14.92;100.00;101361.91;5018790;28;20638;-52
2023/06/27 00:04:10;;;;;;;8.60;3.00;;;;;;;14.89;100.00;101367.44;5022507;28;20195;-52
2023/06/27 00:06:42;;;;;;;7.72;2.80;;;;;;;14.92;100.00;101359.19;5018291;28;20260;-53
2023/06/27 00:09:09;;;;;;;9.80;3.15;;;;;;;14.85;100.00;101371.25;5014431;28;20205;-55
2023/06/27 00:11:39;;;;;;;9.52;3.15;;;;;;;14.64;100.00;101370.41;5003069;28;20176;-52
2023/06/27 00:14:07;;;;;;;9.93;2.55;;;;;;;14.77;100.00;101363.50;5008783;28;20659;-53
2023/06/27 00:16:33;;;;;;;10.80;2.42;;;;;;;14.69;100.00;101368.38;5011444;28;20180;-54
2023/06/27 00:19:04;;;;;;;11.98;2.97;;;;;;;14.72;100.00;101376.34;5002728;28;20539;-54
2023/06/27 00:21:34;;;;;;;10.77;2.97;;;;;;;14.75;100.00;101373.47;5010102;28;20177;-53
2023/06/27 00:24:00;;;;;;;7.07;2.80;;;;;;;14.73;100.00;101377.19;5016526;28;20694;-54
2023/06/27 00:26:27;;;;;;;10.90;3.17;;;;;;;14.74;100.00;101373.56;5013634;28;20626;-54
2023/06/27 00:28:53;;;;;;;7.28;2.55;;;;;;;14.57;100.00;101382.44;5001256;28;20172;-53
2023/06/27 00:31:19;;;;;;;10.38;2.65;;;;;;;14.53;100.00;101380.78;5023940;28;20180;-55
2023/06/27 00:33:45;;;;;;;15.68;3.63;;;;;;;14.48;100.00;101386.41;5017515;28;20200;-54
2023/06/27 00:36:11;;;;;;;10.27;3.15;;;;;;;14.45;100.00;101381.13;5010392;28;20334;-54
2023/06/27 00:38:36;;;;;;;11.52;2.95;;;;;;;14.40;100.00;101378.66;5004684;28;20267;-54
2023/06/27 00:41:02;;;;;;;10.32;2.58;;;;;;;14.40;100.00;101370.56;5016796;28;20186;-55
2023/06/27 00:43:28;;;;;;;12.45;3.53;;;;;;;14.36;100.00;101378.84;5015996;28;20578;-52
2023/06/27 00:45:55;;;;;;;9.68;2.50;;;;;;;14.42;100.00;101387.53;5012674;28;20630;-52
2023/06/27 00:48:21;;;;;;;9.77;3.20;;;;;;;14.29;100.00;101374.69;5012394;28;20192;-54
2023/06/27 00:50:49;;;;;;;10.98;3.10;;;;;;;14.22;100.00;101382.19;5016482;28;20176;-52
2023/06/27 00:53:15;;;;;;;13.35;3.15;;;;;;;14.25;100.00;101387.44;5014157;28;20209;-53
2023/06/27 00:55:41;;;;;;;8.95;2.95;;;;;;;14.23;100.00;101373.13;5010659;28;20213;-54
2023/06/27 00:58:07;;;;;;;8.52;2.65;;;;;;;14.36;100.00;101385.13;5010198;28;20426;-52
2023/06/27 01:00:33;;;;;;;6.70;2.53;;;;;;;14.29;100.00;101377.41;5017169;28;20215;-53
2023/06/27 01:02:58;;;;;;;9.82;2.45;;;;;;;14.24;100.00;101377.59;5014195;28;20188;-52
2023/06/27 01:05:24;;;;;;;11.00;2.85;;;;;;;14.22;100.00;101388.44;5018008;28;20177;-52
2023/06/27 01:08:01;;;;;;;16.08;3.13;;;;;;;14.17;100.00;101376.13;5011054;28;20200;-53
2023/06/27 01:10:32;;;;;;;11.48;2.97;;;;;;;14.12;100.00;101380.84;5004065;28;20243;-52
2023/06/27 01:13:06;;;;;;;8.15;2.80;;;;;;;14.09;100.00;101383.69;5009161;28;20367;-53
2023/06/27 01:15:33;;;;;;;12.85;3.72;;;;;;;14.05;100.00;101385.63;5005658;28;20207;-52
2023/06/27 01:17:59;;;;;;;8.85;2.72;;;;;;;13.96;100.00;101394.97;5015821;28;20194;-53
2023/06/27 01:20:25;;;;;;;7.00;2.72;;;;;;;14.01;100.00;101402.84;5017306;28;20172;-53
2023/06/27 01:23:07;;;;;;;11.18;3.45;;;;;;;13.92;100.00;101382.56;5017302;28;20200;-52
2023/06/27 01:25:33;;;;;;;9.88;2.70;;;;;;;13.98;100.00;101385.00;4998857;28;20181;-54
2023/06/27 01:27:59;;;;;;;8.90;2.72;;;;;;;13.96;100.00;101386.91;5006719;28;20185;-53
2023/06/27 01:30:24;;;;;;;9.07;2.47;;;;;;;14.04;100.00;101374.91;5012188;28;20663;-52
2023/06/27 01:33:19;;;;;;;9.90;3.13;;;;;;;13.92;100.00;101382.56;5008861;28;20278;-53
2023/06/27 01:36:01;;;;;;;9.05;2.38;;;;;;;14.01;100.00;101374.13;4996753;28;20547;-55
2023/06/27 01:38:53;;;;;;;14.77;3.20;;;;;;;13.84;100.00;101376.66;5019456;28;20164;-54
2023/06/27 01:41:23;;;;;;;9.13;3.05;;;;;;;13.81;100.00;101376.78;4999847;28;20185;-55
2023/06/27 01:43:52;;;;;;;12.10;2.85;;;;;;;13.85;100.00;101380.22;5004964;28;20655;-55
2023/06/27 01:46:19;;;;;;;10.07;2.90;;;;;;;13.81;100.00;101376.78;5023591;28;20533;-55
2023/06/27 01:48:46;;;;;;;10.35;2.80;;;;;;;13.77;100.00;101385.94;5006914;28;20199;-56
2023/06/27 01:51:12;;;;;;;10.07;3.30;;;;;;;13.81;100.00;101377.66;5008766;28;20240;-53
2023/06/27 01:53:37;;;;;;;11.02;2.78;;;;;;;13.92;100.00;101376.31;5002305;28;20208;-53
2023/06/27 01:56:07;;;;;;;11.77;2.63;;;;;;;13.95;100.00;101373.47;5017366;28;20646;-55
2023/06/27 01:58:33;;;;;;;7.32;2.45;;;;;;;13.97;100.00;101371.59;5000034;28;20177;-53
2023/06/27 02:01:00;;;;;;;8.25;3.10;;;;;;;13.92;100.00;101379.00;5010741;28;20246;-56
2023/06/27 02:03:26;;;;;;;8.10;2.30;;;;;;;13.89;100.00;101381.84;5000396;28;20617;-53
2023/06/27 02:05:51;;;;;;;5.72;2.92;;;;;;;13.87;100.00;101376.53;5010555;28;20172;-54
2023/06/27 02:08:17;;;;;;;11.95;2.95;;;;;;;13.76;100.00;101381.50;5009829;28;20176;-53
2023/06/27 02:10:42;;;;;;;13.30;3.20;;;;;;;13.76;100.00;101378.81;5004491;28;20188;-56
2023/06/27 02:13:08;;;;;;;10.55;2.78;;;;;;;13.79;100.00;101379.53;5004382;28;20695;-56
2023/06/27 02:15:34;;;;;;;10.50;2.90;;;;;;;13.85;100.00;101382.94;5012443;28;20208;-56
2023/06/27 02:18:04;;;;;;;7.85;2.53;;;;;;;13.77;100.00;101381.44;5013110;28;20263;-53
2023/06/27 02:20:30;;;;;;;15.25;3.65;;;;;;;13.71;100.00;101375.41;5007444;28;20172;-54
2023/06/27 02:22:56;;;;;;;10.88;2.75;;;;;;;13.62;100.00;101376.69;5003890;28;20212;-52
2023/06/27 02:25:21;;;;;;;12.63;3.42;;;;;;;13.55;100.00;101367.13;5021502;28;20206;-53
2023/06/27 02:27:47;;;;;;;10.20;2.70;;;;;;;13.63;100.00;101378.44;5012169;28;20221;-55
2023/06/27 02:30:12;;;;;;;8.38;3.10;;;;;;;13.53;100.00;101383.31;5005213;28;20195;-54
2023/06/27 02:32:38;;;;;;;10.70;3.05;;;;;;;13.56;100.00;101369.75;5014910;28;20196;-54
2023/06/27 02:35:04;;;;;;;14.57;3.85;;;;;;;13.55;100.00;101383.28;5013827;28;20218;-53
2023/06/27 02:37:29;;;;;;;8.07;2.72;;;;;;;13.45;100.00;101380.09;5018465;28;20219;-55
2023/06/27 02:39:56;;;;;;;12.98;3.40;;;;;;;13.46;100.00;101380.97;5018775;28;20693;-53
2023/06/27 02:42:22;;;;;;;15.50;3.53;;;;;;;13.42;100.00;101379.34;5006664;28;20200;-55
2023/06/27 02:44:48;;;;;;;9.55;3.17;;;;;;;13.46;100.00;101376.44;5012195;28;20753;-55
2023/06/27 02:47:14;;;;;;;10.38;2.58;;;;;;;13.40;100.00;101371.31;5011323;28;20209;-53
2023/06/27 02:49:42;;;;;;;13.68;3.15;;;;;;;13.32;100.00;101371.66;4999211;28;20184;-55
2023/06/27 02:52:08;;;;;;;12.55;3.40;;;;;;;13.39;100.00;101364.19;5011743;28;20316;-55
2023/06/27 02:54:34;;;;;;;11.82;2.95;;;;;;;13.39;100.00;101370.44;5012029;28;20197;-55
2023/06/27 02:56:59;;;;;;;10.98;3.35;;;;;;;13.36;100.00;101364.34;5009755;28;20172;-54
2023/06/27 02:59:25;;;;;;;13.00;3.22;;;;;;;13.38;100.00;101357.94;5013714;28;20177;-53
2023/06/27 03:01:53;;;;;;;13.10;3.40;;;;;;;13.37;100.00;101353.47;4998111;28;20661;-56
2023/06/27 03:04:21;;;;;;;12.80;2.70;;;;;;;13.33;100.00;101359.94;4996533;28;20647;-56
2023/06/27 03:06:48;;;;;;;7.45;2.30;;;;;;;13.47;100.00;101356.69;5001698;28;20260;-54
2023/06/27 03:09:15;;;;;;;7.68;2.65;;;;;;;13.39;100.00;101366.88;5006705;28;20280;-54
2023/06/27 03:11:40;;;;;;;13.65;2.33;;;;;;;13.39;100.00;101345.34;5019571;28;20218;-55
2023/06/27 03:14:06;;;;;;;9.38;2.28;;;;;;;13.49;100.00;101356.59;5012472;28;20770;-55
2023/06/27 03:16:32;;;;;;;9.98;2.30;;;;;;;13.38;100.00;101359.75;5010807;28;20271;-56
2023/06/27 03:18:59;;;;;;;10.20;2.50;;;;;;;13.37;100.00;101347.25;5011320;28;20182;-54
2023/06/27 03:21:24;;;;;;;10.15;2.53;;;;;;;13.38;100.00;101343.59;5011220;28;20731;-53
2023/06/27 03:23:52;;;;;;;12.90;2.47;;;;;;;13.37;100.00;101341.84;5021339;28;20300;-54
2023/06/27 03:26:17;;;;;;;9.63;2.63;;;;;;;13.43;100.00;101346.13;5010113;28;20269;-53
2023/06/27 03:28:43;;;;;;;12.02;2.72;;;;;;;13.39;100.00;101358.81;5009652;28;20176;-54
2023/06/27 03:31:08;;;;;;;8.88;2.30;;;;;;;13.48;100.00;101357.56;5020014;28;20260;-53
2023/06/27 03:33:34;;;;;;;8.95;2.20;;;;;;;13.55;100.00;101353.66;5020875;28;20284;-55
2023/06/27 03:35:59;;;;;;;9.27;2.67;;;;;;;13.51;100.00;101358.31;5013606;28;20204;-55
2023/06/27 03:38:25;;;;;;;11.90;2.25;;;;;;;13.49;100.00;101348.53;5005418;28;20199;-55
2023/06/27 03:40:50;;;;;;;9.35;2.28;;;;;;;13.43;100.00;101364.97;5020800;28;20209;-53
2023/06/27 03:43:16;;;;;;;9.63;2.25;;;;;;;13.47;100.00;101361.16;5014955;28;20250;-53
2023/06/27 03:45:42;;;;;;;9.02;2.38;;;;;;;13.42;100.00;101361.38;5018042;28;20182;-54
2023/06/27 03:48:08;;;;;;;7.72;2.15;;;;;;;13.48;100.00;101360.25;5002694;28;20247;-55
2023/06/27 03:50:33;;;;;;;10.98;2.53;;;;;;;13.54;100.00;101362.69;5018662;28;20223;-54
2023/06/27 03:53:01;;;;;;;9.68;2.30;;;;;;;13.52;100.00;101360.06;5016878;28;20195;-52
2023/06/27 03:55:26;;;;;;;9.88;2.55;;;;;;;13.59;100.00;101361.53;5001947;28;20208;-55
2023/06/27 03:57:52;;;;;;;6.90;2.03;;;;;;;13.61;100.00;101364.16;5013893;28;20199;-52
2023/06/27 04:00:18;;;;;;;14.10;2.33;;;;;;;13.64;100.00;101361.34;5015958;28;20678;-51
2023/06/27 04:02:43;;;;;;;8.82;2.08;;;;;;;13.72;100.00;101361.91;5014759;28;20243;-51
2023/06/27 04:05:10;;;;;;;8.07;2.28;;;;;;;13.76;100.00;101359.97;5007934;28;20198;-50
2023/06/27 04:07:35;;;;;;;6.75;2.10;;;;;;;13.87;100.00;101367.56;5019269;28;20181;-52
2023/06/27 04:10:01;;;;;;;10.15;2.60;;;;;;;13.79;100.00;101366.06;5012669;28;20180;-50
2023/06/27 04:12:27;;;;;;;13.10;2.17;;;;;;;13.80;100.00;101362.44;5014953;28;20204;-50
2023/06/27 04:14:52;;;;;;;7.43;2.08;;;;;;;13.85;100.00;101364.94;5001562;28;20713;-54
2023/06/27 04:17:18;;;;;;;11.50;2.20;;;;;;;13.86;100.00;101368.50;5010533;28;20191;-52
2023/06/27 04:19:43;;;;;;;10.77;2.55;;;;;;;13.90;100.00;101364.75;5020612;28;20615;-51
2023/06/27 04:22:09;;;;;;;8.55;1.98;;;;;;;14.04;100.00;101351.56;5008822;28;20274;-51
2023/06/27 04:24:35;;;;;;;8.57;1.55;;;;;;;14.05;100.00;101352.41;5000782;28;20181;-51
2023/06/27 04:27:01;;;;;;;9.65;1.98;;;;;;;13.99;100.00;101345.47;5017607;28;20197;-51
2023/06/27 04:29:26;;;;;;;8.20;1.80;;;;;;;14.04;100.00;101351.56;5014718;28;20180;-50
2023/06/27 04:31:52;;;;;;;8.25;2.42;;;;;;;14.07;100.00;101354.09;5005547;28;21077;-52
2023/06/27 04:34:17;;;;;;;9.45;2.60;;;;;;;14.21;100.00;101357.06;5010977;28;20307;-51
2023/06/27 04:36:43;;;;;;;9.88;2.05;;;;;;;14.14;100.00;101346.63;5014886;28;20223;-54
2023/06/27 04:39:09;;;;;;;12.85;3.00;;;;;;;14.17;100.00;101343.78;5013311;28;20663;-51
2023/06/27 04:41:35;;;;;;;7.22;2.20;;;;;;;14.27;100.00;101347.81;5007308;28;20184;-52
2023/06/27 04:44:00;;;;;;;9.50;2.55;;;;;;;14.33;100.00;101342.13;5010072;28;20287;-53
2023/06/27 04:46:28;;;;;;;7.38;1.92;;;;;;;14.34;100.00;101348.41;5017436;28;20607;-51
2023/06/27 04:48:56;;;;;;;10.55;2.28;;;;;;;14.43;100.00;101353.41;5023139;28;20638;-53
2023/06/27 04:51:32;;;;;;;9.27;1.80;;;;;;;14.38;100.00;101348.19;4996779;28;20188;-53
2023/06/27 04:53:57;;;;;;;11.02;2.35;;;;;;;14.50;100.00;101348.59;5020815;28;20314;-54
2023/06/27 04:56:23;;;;;;;8.55;1.88;;;;;;;14.50;100.00;101343.19;5014017;28;20212;-53
2023/06/27 04:58:48;;;;;;;10.68;1.90;;;;;;;14.58;100.00;101347.31;5019676;28;20187;-53
2023/06/27 05:01:14;;;;;;;8.60;2.20;;;;;;;14.73;100.00;101355.63;5012729;28;20389;-51
2023/06/27 05:03:41;;;;;;;9.85;2.10;;;;;;;14.71;100.00;101342.19;5009623;28;20235;-51
2023/06/27 05:06:07;;;;;;;8.75;1.88;;;;;;;14.93;100.00;101351.97;5009730;28;20230;-54
2023/06/27 05:08:35;;;;;;;14.48;2.20;;;;;;;15.04;100.00;101347.81;5017191;28;20188;-52
2023/06/27 05:11:00;;;;;;;8.57;2.00;;;;;;;15.15;100.00;101352.69;4997834;28;20189;-51
2023/06/27 05:13:26;;;;;;;11.98;2.13;;;;;;;15.15;100.00;101346.41;5007057;28;20242;-52
2023/06/27 05:15:51;;;;;;;11.35;3.10;;;;;;;15.24;100.00;101348.69;5014922;28;20204;-51
2023/06/27 05:18:17;;;;;;;8.75;2.05;;;;;;;15.33;100.00;101350.03;5007468;28;20669;-52
2023/06/27 05:20:47;;;;;;;7.05;1.60;;;;;;;15.50;100.00;101341.94;5002047;28;20593;-53
2023/06/27 05:23:12;;;;;;;15.65;2.70;;;;;;;15.59;100.00;101328.00;5011131;28;20209;-50
2023/06/27 05:25:38;;;;;;;6.95;1.88;;;;;;;15.66;100.00;101323.16;5010950;28;20188;-49
2023/06/27 05:28:04;;;;;;;7.68;1.75;;;;;;;15.51;100.00;101323.94;5008167;28;20272;-50
2023/06/27 05:30:30;;;;;;;10.38;2.03;;;;;;;15.55;100.00;101321.00;5003373;28;20218;-50
2023/06/27 05:32:57;;;;;;;8.65;1.70;;;;;;;15.61;99.78;101319.78;5016346;28;20196;-50
2023/06/27 05:35:23;;;;;;;9.38;1.92;;;;;;;15.61;98.40;101312.59;5009049;28;20622;-51
2023/06/27 05:37:49;;;;;;;6.00;1.60;;;;;;;15.66;96.85;101310.50;5010839;28;20566;-49
2023/06/27 05:40:15;;;;;;;7.45;1.70;;;;;;;15.85;96.26;101309.56;5012739;28;20287;-49
2023/06/27 05:42:40;;;;;;;8.30;1.67;;;;;;;15.70;95.20;101310.34;5012104;28;20250;-49
2023/06/27 05:45:07;;;;;;;11.13;1.75;;;;;;;15.98;94.02;101307.09;5016223;28;20176;-49
2023/06/27 05:47:32;;;;;;;8.32;1.55;;;;;;;15.87;92.65;101299.56;5009006;28;20181;-49
2023/06/27 05:49:58;;;;;;;6.85;1.58;;;;;;;15.85;92.48;101299.66;5010699;28;20395;-49
2023/06/27 05:52:23;;;;;;;7.85;2.05;;;;;;;16.19;92.20;101299.66;5018483;28;20665;-49
2023/06/27 05:54:50;;;;;;;7.35;1.48;;;;;;;16.12;91.27;101306.38;5015175;28;20727;-49
2023/06/27 05:57:16;;;;;;;10.88;1.70;;;;;;;16.36;90.25;101301.47;5008361;28;20227;-49
2023/06/27 05:59:41;;;;;;;5.82;1.38;;;;;;;16.38;89.02;101296.84;5014150;28;20280;-51
2023/06/27 06:02:07;;;;;;;7.05;1.67;;;;;;;16.25;88.53;101288.53;5018178;28;20299;-49
2023/06/27 06:04:32;;;;;;;9.18;1.88;;;;;;;16.41;89.17;101296.66;5012740;28;20759;-47
2023/06/27 06:07:03;;;;;;;6.15;1.60;;;;;;;16.50;89.53;101298.84;5005027;28;20192;-48
2023/06/27 06:09:30;;;;;;;6.40;1.50;;;;;;;16.48;89.09;101307.03;5006861;28;20608;-49
2023/06/27 06:11:56;;;;;;;6.40;1.73;;;;;;;16.50;89.27;101300.69;5008701;28;20659;-50
2023/06/27 06:14:22;;;;;;;9.48;2.08;;;;;;;16.47;88.95;101307.16;5017768;28;20211;-49
2023/06/27 06:16:47;;;;;;;8.20;1.80;;;;;;;16.63;88.24;101297.22;5003877;28;20222;-49
2023/06/27 06:19:13;;;;;;;10.02;1.70;;;;;;;16.65;87.09;101299.84;5000427;28;20652;-48
2023/06/27 06:21:39;;;;;;;7.90;2.08;;;;;;;17.07;86.47;101292.97;5011763;28;20178;-48
2023/06/27 06:24:04;;;;;;;5.13;1.40;;;;;;;17.13;85.52;101281.78;5012890;28;20200;-49
2023/06/27 06:26:30;;;;;;;10.48;2.15;;;;;;;17.00;84.21;101286.16;5003639;28;20227;-49
2023/06/27 06:28:56;;;;;;;5.63;1.92;;;;;;;17.22;84.30;101281.22;5009911;28;20631;-49
2023/06/27 06:31:23;;;;;;;8.77;1.83;;;;;;;17.33;83.92;101285.16;5016802;28;20215;-49
2023/06/27 06:33:49;;;;;;;11.85;2.15;;;;;;;17.46;83.37;101288.88;5007609;28;20655;-49
2023/06/27 06:36:14;;;;;;;6.95;1.25;;;;;;;17.33;82.50;101274.31;4999441;28;20201;-48
2023/06/27 06:38:40;;;;;;;9.82;1.80;;;;;;;17.53;81.76;101276.69;5006199;28;20189;-49
2023/06/27 06:41:06;;;;;;;9.90;1.95;;;;;;;17.73;80.46;101271.91;5013758;28;20227;-49
2023/06/27 06:43:32;;;;;;;7.93;1.63;;;;;;;17.51;78.68;101267.78;5001920;28;20244;-49
2023/06/27 06:45:58;;;;;;;8.75;2.00;;;;;;;17.35;79.62;101275.97;5003563;28;20216;-49
2023/06/27 06:48:23;;;;;;;7.60;1.80;;;;;;;17.99;79.21;101273.91;5009238;28;20184;-49
2023/06/27 06:50:53;;;;;;;8.02;1.73;;;;;;;18.06;79.16;101268.97;5010923;28;20295;-49
2023/06/27 06:53:19;;;;;;;7.00;2.00;;;;;;;17.90;77.95;101269.91;5011354;28;20289;-48
2023/06/27 06:55:44;;;;;;;11.25;1.88;;;;;;;17.53;77.96;101275.81;5001818;28;20204;-49
2023/06/27 06:58:10;;;;;;;8.73;1.40;;;;;;;17.65;78.07;101264.25;5019590;28;20184;-49
2023/06/27 07:00:36;;;;;;;9.43;1.58;;;;;;;17.67;78.03;101265.91;5020019;28;20337;-49
2023/06/27 07:03:03;;;;;;;5.93;1.63;;;;;;;17.96;77.05;101248.84;5014422;28;20200;-48
2023/06/27 07:05:29;;;;;;;5.97;1.60;;;;;;;18.68;75.96;101246.94;5010829;28;20696;-50
2023/06/27 07:07:55;;;;;;;6.50;1.60;;;;;;;18.66;75.08;101243.44;5020780;28;20239;-49
2023/06/27 07:10:20;;;;;;;8.30;1.40;;;;;;;18.20;73.11;101232.84;5021982;28;20187;-48
2023/06/27 07:12:46;;;;;;;4.75;1.20;;;;;;;18.76;72.08;101239.16;5015384;28;20218;-49
2023/06/27 07:15:11;;;;;;;6.75;1.38;;;;;;;18.43;72.04;101234.97;5015113;28;20298;-50
2023/06/27 07:17:37;;;;;;;8.88;1.50;;;;;;;18.50;71.10;101236.31;5025107;28;20290;-49
2023/06/27 07:20:07;;;;;;;6.60;1.50;;;;;;;18.42;71.75;101226.91;5022653;28;20250;-52
2023/06/27 07:22:32;;;;;;;3.65;1.30;;;;;;;18.90;70.78;101227.41;5009165;28;20767;-52
2023/06/27 07:24:58;;;;;;;7.47;1.40;;;;;;;19.04;70.21;101219.19;5009652;28;20171;-51
2023/06/27 07:27:23;;;;;;;5.35;1.30;;;;;;;19.26;68.91;101220.44;5021000;28;20175;-52
2023/06/27 07:29:49;;;;;;;3.20;1.20;;;;;;;19.50;68.78;101221.50;5030369;28;20184;-54
2023/06/27 07:32:14;;;;;;;4.85;1.48;;;;;;;19.50;68.66;101216.06;5009932;28;20189;-51
2023/06/27 07:34:40;;;;;;;5.05;1.40;;;;;;;19.66;67.67;101229.44;5014789;28;20574;-51
2023/06/27 07:37:06;;;;;;;4.25;1.10;;;;;;;19.90;67.17;101206.97;5019096;28;20263;-53
2023/06/27 07:39:32;;;;;;;4.85;1.23;;;;;;;19.50;66.64;101215.16;5013771;28;20235;-52
2023/06/27 07:41:57;;;;;;;3.67;1.15;;;;;;;19.33;67.63;101227.22;5006229;28;20259;-52
2023/06/27 07:44:24;;;;;;;6.65;1.17;;;;;;;19.36;67.53;101218.84;5014489;28;20276;-51
2023/06/27 07:46:50;;;;;;;3.95;1.30;;;;;;;19.12;67.19;101213.25;5025010;28;20185;-54
2023/06/27 07:49:15;;;;;;;7.35;1.48;;;;;;;18.99;67.41;101223.19;5012801;28;20255;-51
2023/06/27 07:51:41;;;;;;;6.20;1.33;;;;;;;18.61;68.43;101234.75;5003663;28;20660;-51
2023/06/27 07:54:09;;;;;;;9.40;1.40;;;;;;;18.33;69.34;101247.38;5015082;28;20207;-51
2023/06/27 07:56:35;;;;;;;6.72;1.83;;;;;;;18.38;70.77;101252.50;5019916;28;20239;-54
2023/06/27 07:59:00;;;;;;;5.72;1.52;;;;;;;19.00;69.77;101254.81;5008941;28;20189;-53
2023/06/27 08:01:26;;;;;;;5.40;1.40;;;;;;;18.98;69.60;101232.31;5010855;28;20716;-54
2023/06/27 08:03:51;;;;;;;5.00;1.02;;;;;;;19.69;67.96;101222.91;5017595;28;20589;-51
2023/06/27 08:06:17;;;;;;;5.55;1.48;;;;;;;19.85;64.68;101204.53;5004469;28;20176;-53
2023/06/27 08:08:42;;;;;;;5.80;1.10;;;;;;;19.30;65.44;101205.69;5015841;28;20224;-51
2023/06/27 08:11:08;;;;;;;5.55;1.48;;;;;;;19.65;62.89;101189.63;5003475;28;20188;-52
2023/06/27 08:13:38;;;;;;;2.20;1.20;;;;;;;19.63;61.84;101179.84;5017302;28;20273;-53
2023/06/27 08:16:04;;;;;;;5.45;1.05;;;;;;;19.44;63.21;101202.00;5010209;28;20729;-54
2023/06/27 08:18:29;;;;;;;6.82;1.40;;;;;;;18.81;65.59;101219.88;5006877;28;20196;-52
2023/06/27 08:20:55;;;;;;;3.13;1.10;;;;;;;18.90;66.89;101228.28;5012379;28;20264;-52
2023/06/27 08:23:20;;;;;;;6.85;1.42;;;;;;;19.25;67.50;101232.31;5020565;28;20215;-54
2023/06/27 08:25:46;;;;;;;5.90;1.30;;;;;;;20.07;65.04;101216.63;5016182;28;20181;-53
2023/06/27 08:28:11;;;;;;;5.47;1.38;;;;;;;19.80;64.02;101201.28;5018778;28;20173;-54
2023/06/27 08:30:38;;;;;;;9.52;1.35;;;;;;;19.26;64.65;101202.31;5011164;28;20192;-53
2023/06/27 08:33:04;;;;;;;6.72;1.17;;;;;;;19.87;63.92;101204.44;5010865;28;20196;-50
2023/06/27 08:35:30;;;;;;;5.93;1.35;;;;;;;20.83;61.67;101191.06;5013362;28;20275;-51
2023/06/27 08:37:55;;;;;;;2.35;0.82;;;;;;;20.07;60.11;101168.53;5003405;28;20643;-53
2023/06/27 08:40:25;;;;;;;6.50;1.33;;;;;;;20.01;58.46;101149.94;5011259;28;20605;-53
2023/06/27 08:42:51;;;;;;;5.68;1.10;;;;;;;20.22;57.43;101146.63;5019904;28;20588;-53
2023/06/27 08:45:16;;;;;;;2.75;0.88;;;;;;;20.19;57.04;101141.41;5020314;28;20177;-53
2023/06/27 08:47:44;;;;;;;5.75;1.23;;;;;;;20.89;57.33;101141.56;5000949;28;20189;-51
2023/06/27 08:50:13;;;;;;;5.32;1.15;;;;;;;21.46;56.85;101145.34;5008081;28;20197;-52
2023/06/27 08:52:51;;;;;;;6.25;1.20;;;;;;;21.85;55.40;101125.94;5016705;28;20212;-53
2023/06/27 08:55:34;;;;;;;3.90;1.15;;;;;;;20.82;55.03;101126.69;5006347;28;20220;-52
2023/06/27 08:58:03;;;;;;;5.03;1.30;;;;;;;20.40;55.71;101130.78;5006550;28;20556;-51
2023/06/27 09:00:30;;;;;;;6.13;1.48;;;;;;;19.86;56.79;101151.06;5019979;28;20232;-53
2023/06/27 09:02:56;;;;;;;3.67;0.98;;;;;;;19.53;59.01;101171.47;5014563;28;20615;-53
2023/06/27 09:05:22;;;;;;;2.38;0.80;;;;;;;18.81;59.64;101169.16;5013108;28;20192;-53
2023/06/27 09:07:48;;;;;;;2.50;1.00;;;;;;;18.96;61.56;101196.22;5010607;28;20285;-54
2023/06/27 09:10:15;;;;;;;4.85;1.00;;;;;;;19.12;61.01;101195.09;5015024;28;20194;-51
2023/06/27 09:12:46;;;;;;;4.70;1.10;;;;;;;18.95;61.30;101187.22;5009354;28;20199;-50
2023/06/27 09:15:11;;;;;;;3.78;1.08;;;;;;;20.39;60.07;101187.06;5004212;28;20283;-50
2023/06/27 09:17:37;;;;;;;5.97;1.10;;;;;;;20.35;58.07;101153.75;5007336;28;20212;-51
2023/06/27 09:20:05;;;;;;;4.82;0.95;;;;;;;20.42;57.05;101137.81;5013806;28;20185;-51
2023/06/27 09:22:31;;;;;;;7.22;1.30;;;;;;;19.87;59.78;101171.81;5013147;28;20200;-50
2023/06/27 09:25:10;;;;;;;3.58;1.08;;;;;;;21.07;60.55;101182.00;5008467;28;20208;-50
2023/06/27 09:27:37;;;;;;;2.88;0.98;;;;;;;21.11;56.49;101126.28;5013083;28;20215;-51
2023/06/27 09:30:05;;;;;;;4.10;1.00;;;;;;;20.61;55.70;101125.59;5016479;28;20196;-51
2023/06/27 09:32:30;;;;;;;3.28;1.02;;;;;;;20.13;57.52;101154.47;5009012;28;20232;-49
2023/06/27 09:34:59;;;;;;;4.93;1.17;;;;;;;20.09;57.11;101150.22;5009533;28;20736;-48
2023/06/27 09:37:31;;;;;;;6.07;1.30;;;;;;;19.37;58.81;101168.94;5022655;28;20189;-51
2023/06/27 09:39:57;;;;;;;3.72;0.98;;;;;;;18.89;61.17;101191.25;5018000;28;20553;-52
2023/06/27 09:42:23;;;;;;;5.05;1.20;;;;;;;18.69;63.41;101205.22;5018694;28;20462;-49
2023/06/27 09:44:49;;;;;;;5.65;1.13;;;;;;;18.71;62.34;101200.56;4996411;28;20189;-51
2023/06/27 09:47:14;;;;;;;4.63;1.40;;;;;;;18.16;67.01;101237.59;5010619;28;20191;-49
2023/06/27 09:49:43;;;;;;;6.65;1.15;;;;;;;18.30;70.23;101255.69;5011995;28;20180;-51
2023/06/27 09:52:12;;;;;;;4.72;1.17;;;;;;;18.44;70.06;101246.69;5007735;28;20192;-49
2023/06/27 09:54:42;;;;;;;3.42;1.00;;;;;;;19.31;69.86;101238.19;5005566;28;20230;-52
2023/06/27 09:57:13;;;;;;;4.78;1.10;;;;;;;19.78;67.62;101222.28;5017476;28;20512;-50
2023/06/27 09:59:39;;;;;;;4.28;1.20;;;;;;;20.34;66.10;101225.50;5015266;28;20242;-51
2023/06/27 10:02:14;;;;;;;5.43;1.60;;;;;;;19.45;64.90;101212.75;4998911;28;20185;-53
2023/06/27 10:04:40;;;;;;;6.40;1.40;;;;;;;19.78;65.18;101211.41;5003209;28;20645;-52
2023/06/27 10:07:11;;;;;;;3.63;1.30;;;;;;;20.30;65.13;101226.69;5014505;28;20185;-53
2023/06/27 10:09:37;;;;;;;4.65;1.00;;;;;;;20.38;65.03;101220.72;5008753;28;20183;-53
2023/06/27 10:12:04;;;;;;;3.75;1.20;;;;;;;20.11;65.33;101231.72;5002909;28;20679;-55
2023/06/27 10:14:32;;;;;;;7.88;1.30;;;;;;;20.49;64.93;101237.13;5016766;28;20184;-50
2023/06/27 10:17:00;;;;;;;5.93;1.63;;;;;;;19.46;65.61;101252.56;5011938;28;20660;-50
2023/06/27 10:19:25;;;;;;;3.05;0.98;;;;;;;17.97;64.43;101248.72;5011107;28;20634;-51
2023/06/27 10:21:51;;;;;;;4.85;1.40;;;;;;;17.21;66.44;101254.25;5001092;28;20185;-51
2023/06/27 10:24:17;;;;;;;11.63;2.15;;;;;;;16.18;70.92;101276.28;5009458;28;20303;-52
2023/06/27 10:26:51;;;;;;;9.95;1.70;;;;;;;16.19;73.84;101286.16;5010317;28;20201;-50
2023/06/27 10:29:17;;;;;;;7.63;1.30;;;;;;;16.28;76.81;101297.31;5008017;28;20531;-53
2023/06/27 10:31:47;;;;;;;4.22;1.13;;;;;;;16.24;79.88;101303.00;5004625;28;20196;-51
2023/06/27 10:34:20;;;;;;;5.57;1.30;;;;;;;16.00;82.18;101307.88;5013389;28;20204;-52
2023/06/27 10:37:00;;;;;;;3.28;1.20;;;;;;;16.32;83.60;101311.56;5015620;28;20195;-52
2023/06/27 10:39:26;;;;;;;7.45;1.73;;;;;;;15.91;84.51;101298.44;5005318;28;20184;-51
2023/06/27 10:41:58;;;;;;;5.20;1.40;;;;;;;16.16;86.44;101305.22;5004689;28;20273;-51
2023/06/27 10:44:24;;;;;;;4.35;1.30;;;;;;;16.26;86.92;101295.66;5017452;28;20267;-50
2023/06/27 10:47:15;;;;;;;8.23;1.75;;;;;;;16.45;87.14;101295.53;5010418;28;20284;-53
2023/06/27 10:49:45;;;;;;;3.97;1.38;;;;;;;16.71;87.98;101291.38;5004474;28;20280;-51
2023/06/27 10:52:19;;;;;;;6.07;1.40;;;;;;;17.40;88.88;101287.38;5016094;28;20618;-50
2023/06/27 10:54:44;;;;;;;3.88;1.48;;;;;;;18.41;90.46;101285.75;5010327;28;20679;-53
2023/06/27 10:57:16;;;;;;;9.40;1.52;;;;;;;18.73;89.87;101288.22;5010598;28;20179;-53
2023/06/27 10:59:45;;;;;;;6.03;1.17;;;;;;;18.80;88.42;101284.16;5004037;28;20184;-52
2023/06/27 11:02:12;;;;;;;10.15;1.30;;;;;;;18.90;85.68;101281.72;5009597;28;20187;-54
2023/06/27 11:04:43;;;;;;;5.43;1.30;;;;;;;19.01;84.24;101284.59;5014009;28;20188;-51
2023/06/27 11:07:16;;;;;;;5.10;1.33;;;;;;;19.50;83.94;101275.84;5011566;28;20247;-50
2023/06/27 11:09:56;;;;;;;5.70;1.30;;;;;;;19.55;82.77;101270.09;5007055;28;20185;-52
2023/06/27 11:12:22;;;;;;;4.57;1.20;;;;;;;19.67;79.91;101261.06;5010685;28;20208;-52
2023/06/27 11:14:53;;;;;;;3.90;1.30;;;;;;;19.92;79.04;101256.69;5013925;28;20220;-53
2023/06/27 11:17:19;;;;;;;3.72;1.30;;;;;;;20.20;76.79;101246.53;5007724;28;20188;-50
2023/06/27 11:19:45;;;;;;;2.15;1.10;;;;;;;20.01;74.68;101241.56;5008114;28;20673;-52